Time;durP1;ratioP1;P1;durP2;ratioP2;P2;SDS_P1;SDS_P2;PMS_P1;PMS_P2;Temp;Humidity;BMP_temperature;BMP_pressure;BME280_temperature;BME280_humidity;BME280_pressure;Samples;Min_cycle;Max_cycle;Signal;HPM_P1;HPM_P2
2021/12/17 00:00:58;;;;;;;0.70;0.70;;;4.30;99.90;;;;;;5015760;28;20187;-54
2021/12/17 00:03:44;;;;;;;0.40;0.40;;;4.30;99.90;;;;;;5015373;28;20532;-54
2021/12/17 00:06:59;;;;;;;1.83;1.43;;;4.30;99.90;;;;;;5015678;28;20184;-56
2021/12/17 00:09:00;;;;;;;2.20;1.57;;;4.30;99.90;;;;;;5008159;28;20223;-58
2021/12/17 00:11:26;;;;;;;0.53;0.53;;;4.30;99.90;;;;;;5015525;28;20659;-55
2021/12/17 00:13:54;;;;;;;1.50;1.30;;;4.30;99.90;;;;;;5015646;28;20225;-55
2021/12/17 00:16:24;;;;;;;0.90;0.90;;;4.30;99.90;;;;;;5015556;28;20190;-58
2021/12/17 00:19:16;;;;;;;9.70;1.50;;;4.30;99.90;;;;;;5015640;28;20239;-54
2021/12/17 00:48:23;;;;;;;1.00;0.47;;;3.80;99.90;;;;;;5034845;28;20190;-60
2021/12/17 00:49:19;;;;;;;2.90;1.23;;;3.80;99.90;;;;;;5034277;28;20222;-60
2021/12/17 00:54:22;;;;;;;2.10;1.00;;;3.80;99.90;;;;;;5033517;28;20620;-58
2021/12/17 00:56:51;;;;;;;0.50;0.40;;;3.80;99.90;;;;;;5017435;28;20179;-59
2021/12/17 00:59:17;;;;;;;0.50;0.50;;;3.80;99.90;;;;;;5034502;28;20180;-60
2021/12/17 01:01:44;;;;;;;1.83;1.63;;;3.80;99.90;;;;;;5034424;28;20182;-59
2021/12/17 01:04:11;;;;;;;2.47;1.87;;;3.70;99.90;;;;;;5016791;28;20239;-58
2021/12/17 01:06:38;;;;;;;0.87;0.87;;;3.70;99.90;;;;;;5034534;28;20253;-59
2021/12/17 01:09:06;;;;;;;3.80;1.50;;;3.70;99.90;;;;;;5033883;28;20212;-58
2021/12/17 01:11:32;;;;;;;2.93;2.27;;;3.70;99.90;;;;;;5033909;28;20167;-58
2021/12/17 01:13:58;;;;;;;0.43;0.43;;;3.70;99.90;;;;;;5033977;28;20232;-68
2021/12/17 01:16:24;;;;;;;3.00;1.47;;;3.70;99.90;;;;;;5034313;28;20212;-60
2021/12/17 01:21:29;;;;;;;1.30;1.03;;;3.50;99.90;;;;;;5033955;28;20189;-60
2021/12/17 01:42:45;;;;;;;2.40;2.03;;;3.40;99.90;;;;;;5013821;28;20171;-60
2021/12/17 01:45:11;;;;;;;10.10;3.10;;;3.30;99.90;;;;;;5013678;28;20196;-59
2021/12/17 01:47:37;;;;;;;0.70;0.70;;;3.30;99.90;;;;;;5013798;28;20531;-59
2021/12/17 02:00:56;;;;;;;1.83;1.73;;;3.50;99.90;;;;;;5013784;28;20220;-60
2021/12/17 02:03:22;;;;;;;1.40;1.30;;;3.50;99.90;;;;;;5013323;28;20175;-59
2021/12/17 02:05:49;;;;;;;3.90;2.37;;;3.50;99.90;;;;;;5013040;28;20188;-59
2021/12/17 02:08:15;;;;;;;3.10;1.90;;;3.40;99.90;;;;;;5012514;28;20207;-60
2021/12/17 02:32:08;;;;;;;0.83;0.83;;;3.40;99.90;;;;;;5032685;28;20175;-60
2021/12/17 02:37:24;;;;;;;0.73;0.73;;;3.40;99.90;;;;;;5032559;28;20166;-60
2021/12/17 02:47:59;;;;;;;1.20;0.87;;;3.40;99.90;;;;;;5032535;28;20213;-60
2021/12/17 02:50:26;;;;;;;1.47;1.13;;;3.40;99.90;;;;;;5032541;28;20617;-60
2021/12/17 02:52:55;;;;;;;1.73;1.30;;;3.40;99.90;;;;;;5014336;28;20361;-60
2021/12/17 02:55:21;;;;;;;0.80;0.77;;;3.40;99.90;;;;;;5032273;28;20623;-59
2021/12/17 02:57:48;;;;;;;4.33;2.67;;;3.40;99.90;;;;;;5032486;28;20185;-60
2021/12/17 03:00:15;;;;;;;3.10;2.10;;;3.40;99.90;;;;;;5032284;28;20178;-60
2021/12/17 03:02:41;;;;;;;1.60;1.47;;;3.40;99.90;;;;;;5032280;28;20182;-60
2021/12/17 03:05:08;;;;;;;1.50;1.00;;;3.40;99.90;;;;;;5032078;28;20198;-61
2021/12/17 03:07:38;;;;;;;3.50;1.13;;;3.40;99.90;;;;;;5032178;28;20237;-60
2021/12/17 03:10:07;;;;;;;1.60;1.13;;;3.40;99.90;;;;;;5031920;28;20570;-69
2021/12/17 03:12:42;;;;;;;0.87;0.83;;;3.40;99.90;;;;;;5031789;28;20189;-59
2021/12/17 03:25:32;;;;;;;1.60;1.30;;;3.40;99.90;;;;;;5032042;28;20178;-59
2021/12/17 03:27:58;;;;;;;1.13;1.03;;;3.40;99.90;;;;;;5031912;28;20222;-59
2021/12/17 03:30:24;;;;;;;9.00;1.90;;;3.30;99.90;;;;;;5031309;28;20274;-60
2021/12/17 03:32:49;;;;;;;1.17;1.03;;;3.30;99.90;;;;;;5031734;28;20746;-60
2021/12/17 03:35:15;;;;;;;1.80;1.60;;;3.30;99.90;;;;;;5031865;28;20192;-59
2021/12/17 03:37:41;;;;;;;1.70;1.60;;;3.30;99.90;;;;;;5031469;28;20186;-59
2021/12/17 03:40:07;;;;;;;1.00;0.93;;;3.30;99.90;;;;;;5031324;28;20201;-60
2021/12/17 03:42:33;;;;;;;2.27;1.77;;;3.30;99.90;;;;;;5031589;28;20228;-62
2021/12/17 03:44:58;;;;;;;2.23;1.77;;;3.30;99.90;;;;;;5031543;28;20269;-60
2021/12/17 03:47:24;;;;;;;3.30;1.77;;;3.30;99.90;;;;;;5031537;28;20564;-59
2021/12/17 03:49:52;;;;;;;0.40;0.40;;;3.40;99.90;;;;;;5031702;28;20237;-59
2021/12/17 03:52:18;;;;;;;2.00;0.97;;;3.40;99.90;;;;;;5031960;28;20343;-60
2021/12/17 03:54:43;;;;;;;0.40;0.40;;;3.40;99.90;;;;;;5031789;28;20591;-60
2021/12/17 03:57:13;;;;;;;1.87;1.77;;;3.50;99.90;;;;;;5031901;28;20729;-59
2021/12/17 03:59:38;;;;;;;1.23;1.13;;;3.50;99.90;;;;;;5031653;28;20187;-61
2021/12/17 04:02:04;;;;;;;6.73;2.10;;;3.50;99.90;;;;;;5031614;28;20186;-70
2021/12/17 04:04:30;;;;;;;1.53;1.47;;;3.50;99.90;;;;;;5031360;28;20172;-60
2021/12/17 04:06:56;;;;;;;2.33;1.53;;;3.50;99.90;;;;;;5031747;28;20254;-58
2021/12/17 04:09:23;;;;;;;1.37;1.27;;;3.50;99.90;;;;;;5031123;28;20679;-58
2021/12/17 04:11:49;;;;;;;0.53;0.53;;;3.40;99.90;;;;;;5031604;28;20195;-59
2021/12/17 04:14:14;;;;;;;0.80;0.80;;;3.40;99.90;;;;;;5031059;28;20237;-59
2021/12/17 04:16:40;;;;;;;4.73;2.20;;;3.40;99.90;;;;;;5031437;28;20196;-60
2021/12/17 04:19:06;;;;;;;0.73;0.60;;;3.40;99.90;;;;;;5013700;28;20691;-59
2021/12/17 04:21:32;;;;;;;2.53;1.10;;;3.40;99.90;;;;;;5031605;28;20194;-60
2021/12/17 04:23:58;;;;;;;9.83;1.90;;;3.40;99.90;;;;;;5031125;28;20183;-60
2021/12/17 04:26:25;;;;;;;1.50;1.40;;;3.40;99.90;;;;;;5031388;28;20198;-60
2021/12/17 04:28:53;;;;;;;1.67;1.57;;;3.40;99.90;;;;;;5031465;28;20261;-59
2021/12/17 04:31:23;;;;;;;0.53;0.53;;;3.30;99.90;;;;;;5033532;28;20191;-59
2021/12/17 04:33:48;;;;;;;1.77;1.67;;;3.20;99.90;;;;;;5035183;28;20221;-58
2021/12/17 04:36:22;;;;;;;4.03;0.60;;;3.10;99.90;;;;;;5034627;28;20223;-57
2021/12/17 04:38:48;;;;;;;0.93;0.73;;;3.00;99.90;;;;;;5034880;28;20261;-57
2021/12/17 04:46:50;;;;;;;0.33;0.33;;;2.60;99.90;;;;;;5034261;28;20931;-60
2021/12/17 04:59:58;;;;;;;0.43;0.43;;;2.50;99.90;;;;;;5016843;28;20186;-57
2021/12/17 05:02:24;;;;;;;0.97;0.63;;;2.50;99.90;;;;;;5033694;28;20413;-56
2021/12/17 05:04:52;;;;;;;4.33;1.07;;;2.50;99.90;;;;;;5034177;28;20182;-58
2021/12/17 05:07:17;;;;;;;0.40;0.40;;;2.50;99.90;;;;;;5033611;28;20650;-57
2021/12/17 05:20:43;;;;;;;1.00;0.93;;;2.60;99.90;;;;;;5033667;28;20212;-57
2021/12/17 05:23:09;;;;;;;0.93;0.83;;;2.60;99.90;;;;;;5033151;28;20198;-59
2021/12/17 05:25:34;;;;;;;2.30;1.47;;;2.60;99.90;;;;;;5032860;28;20244;-58
2021/12/17 05:28:02;;;;;;;1.43;1.30;;;2.60;99.90;;;;;;5033357;28;20569;-59
2021/12/17 05:30:29;;;;;;;2.17;1.80;;;2.60;99.90;;;;;;5033461;28;20197;-61
2021/12/17 05:32:56;;;;;;;0.97;0.97;;;2.60;99.90;;;;;;5033080;28;20195;-58
2021/12/17 05:35:22;;;;;;;5.40;1.30;;;2.60;99.90;;;;;;5032963;28;20179;-62
2021/12/17 05:37:49;;;;;;;0.20;0.20;;;2.70;99.90;;;;;;5032822;28;20411;-60
2021/12/17 05:40:15;;;;;;;8.20;2.40;;;2.70;99.90;;;;;;5032297;28;20198;-60
2021/12/17 05:42:42;;;;;;;0.70;0.60;;;2.70;99.90;;;;;;5032976;28;20603;-58
2021/12/17 05:45:21;;;;;;;0.67;0.30;;;2.80;99.90;;;;;;5032351;28;20635;-61
2021/12/17 05:47:48;;;;;;;3.60;0.97;;;2.80;99.90;;;;;;5014224;28;20174;-59
2021/12/17 05:50:14;;;;;;;8.90;2.53;;;2.80;99.90;;;;;;5014429;28;20194;-61
2021/12/17 05:52:40;;;;;;;2.73;2.10;;;2.80;99.90;;;;;;5032465;28;20539;-59
2021/12/17 05:55:06;;;;;;;0.43;0.43;;;2.80;99.90;;;;;;5031772;28;20674;-60
2021/12/17 05:57:32;;;;;;;3.87;1.63;;;2.80;99.90;;;;;;5032463;28;20179;-57
2021/12/17 05:59:57;;;;;;;0.73;0.40;;;2.90;99.90;;;;;;5015033;28;20186;-60
2021/12/17 06:02:23;;;;;;;1.00;1.00;;;2.90;99.90;;;;;;5014953;28;20578;-61
2021/12/17 06:04:49;;;;;;;1.33;1.00;;;2.90;99.90;;;;;;5032288;28;20646;-59
2021/12/17 06:07:27;;;;;;;1.57;1.47;;;2.90;99.90;;;;;;5032184;28;20182;-59
2021/12/17 06:09:53;;;;;;;1.57;0.73;;;2.90;99.90;;;;;;5032678;28;20175;-61
2021/12/17 06:12:19;;;;;;;1.30;1.13;;;2.90;99.90;;;;;;5024124;28;20562;-60
2021/12/17 06:14:45;;;;;;;1.13;1.10;;;2.90;99.90;;;;;;5014956;28;20236;-60
2021/12/17 06:17:11;;;;;;;0.40;0.40;;;3.00;99.90;;;;;;5011800;28;20187;-56
2021/12/17 06:19:37;;;;;;;0.30;0.30;;;3.00;99.90;;;;;;4994480;28;20187;-55
2021/12/17 06:22:03;;;;;;;0.40;0.40;;;3.00;99.90;;;;;;5012275;28;20231;-60
2021/12/17 06:24:28;;;;;;;2.03;1.90;;;3.00;99.90;;;;;;5012088;28;20346;-60
2021/12/17 06:26:54;;;;;;;0.97;0.97;;;3.00;99.90;;;;;;4994315;28;20650;-59
2021/12/17 06:29:20;;;;;;;2.20;0.97;;;2.90;99.90;;;;;;5015318;28;20207;-56
2021/12/17 06:31:46;;;;;;;0.43;0.43;;;2.90;99.90;;;;;;5012711;28;20183;-60
2021/12/17 06:34:12;;;;;;;0.83;0.83;;;2.80;99.90;;;;;;5029433;28;20182;-66
2021/12/17 06:36:38;;;;;;;0.97;0.60;;;2.80;99.90;;;;;;4995650;28;20219;-62
2021/12/17 06:39:04;;;;;;;2.17;1.00;;;2.80;99.90;;;;;;5029263;28;20178;-60
2021/12/17 06:41:29;;;;;;;7.00;1.33;;;2.90;99.90;;;;;;5028266;28;20179;-62
2021/12/17 06:43:57;;;;;;;1.90;1.67;;;2.90;99.90;;;;;;5029643;28;20179;-61
2021/12/17 06:46:46;;;;;;;1.73;1.63;;;2.90;99.90;;;;;;5028855;28;20202;-61
2021/12/17 07:10:37;;;;;;;4.13;1.30;;;3.00;99.90;;;;;;5028817;28;20158;-72
2021/12/17 07:34:50;;;;;;;0.67;0.67;;;3.10;99.90;;;;;;4996130;28;20193;-64
2021/12/17 07:39:43;;;;;;;1.47;1.37;;;3.20;99.90;;;;;;5009536;28;20269;-62
2021/12/17 07:42:09;;;;;;;2.83;1.60;;;3.20;99.90;;;;;;5022623;28;20187;-62
2021/12/17 07:44:35;;;;;;;0.93;0.93;;;3.20;99.90;;;;;;5029397;28;20181;-62
2021/12/17 07:47:01;;;;;;;5.23;2.10;;;3.30;99.90;;;;;;5016720;28;20187;-61
2021/12/17 07:49:27;;;;;;;0.93;0.93;;;3.30;99.90;;;;;;5009419;28;20602;-64
2021/12/17 07:51:53;;;;;;;1.87;1.77;;;3.30;99.90;;;;;;5008838;28;20196;-61
2021/12/17 07:54:19;;;;;;;2.97;1.73;;;3.30;99.90;;;;;;5008928;28;20706;-61
2021/12/17 07:56:45;;;;;;;1.57;0.77;;;3.30;99.90;;;;;;5008985;28;20168;-64
2021/12/17 07:59:12;;;;;;;0.10;0.10;;;3.40;99.90;;;;;;5008817;28;20216;-65
2021/12/17 08:01:40;;;;;;;0.50;0.47;;;3.50;99.90;;;;;;5008986;28;20180;-63
2021/12/17 08:04:08;;;;;;;0.47;0.47;;;3.40;99.90;;;;;;5009363;28;20244;-64
2021/12/17 08:06:35;;;;;;;0.50;0.40;;;3.40;99.90;;;;;;5012640;28;20179;-71
2021/12/17 08:09:03;;;;;;;2.43;0.70;;;3.40;99.90;;;;;;5012202;28;20346;-63
2021/12/17 08:11:31;;;;;;;5.87;1.40;;;3.40;99.90;;;;;;5022543;28;20270;-60
2021/12/17 08:13:57;;;;;;;1.20;1.13;;;3.40;99.90;;;;;;5033452;28;20223;-56
2021/12/17 08:32:07;;;;;;;0.47;0.47;;;3.50;99.90;;;;;;5014795;28;20632;-62
2021/12/17 08:34:33;;;;;;;1.33;0.90;;;3.50;99.90;;;;;;4997090;28;20255;-56
2021/12/17 08:36:59;;;;;;;7.33;1.07;;;3.50;99.90;;;;;;4996458;28;20273;-57
2021/12/17 08:39:29;;;;;;;1.10;1.03;;;3.50;99.90;;;;;;5013554;28;20266;-56
2021/12/17 08:41:55;;;;;;;3.37;2.07;;;3.50;99.90;;;;;;5025264;28;20203;-56
2021/12/17 08:44:22;;;;;;;0.60;0.60;;;3.50;99.90;;;;;;5032230;28;20178;-61
2021/12/17 08:46:49;;;;;;;0.50;0.50;;;3.50;99.90;;;;;;5013705;28;20191;-60
2021/12/17 08:49:15;;;;;;;0.00;0.00;;;3.60;99.90;;;;;;5031706;28;20211;-61
2021/12/17 08:51:43;;;;;;;0.30;0.30;;;3.60;99.90;;;;;;5014199;28;20611;-62
2021/12/17 08:54:09;;;;;;;1.73;1.27;;;3.60;99.90;;;;;;5032042;28;20179;-60
2021/12/17 08:56:42;;;;;;;0.47;0.47;;;3.60;99.90;;;;;;5014506;28;20184;-60
2021/12/17 08:59:08;;;;;;;0.30;0.30;;;3.70;99.90;;;;;;5032412;28;20592;-57
2021/12/17 09:01:35;;;;;;;0.40;0.40;;;3.70;99.90;;;;;;5015749;28;20180;-58
2021/12/17 09:04:02;;;;;;;0.50;0.50;;;3.90;99.90;;;;;;5033633;28;20196;-59
2021/12/17 09:06:28;;;;;;;0.37;0.37;;;3.90;99.90;;;;;;5033167;28;20192;-62
2021/12/17 09:08:55;;;;;;;1.63;1.53;;;3.90;99.90;;;;;;5015214;28;20254;-61
2021/12/17 09:11:23;;;;;;;0.13;0.13;;;3.90;99.90;;;;;;5025399;28;20263;-61
2021/12/17 09:13:50;;;;;;;0.33;0.33;;;3.70;99.90;;;;;;5013295;28;20688;-57
2021/12/17 09:16:17;;;;;;;0.33;0.30;;;3.60;99.90;;;;;;5012673;28;20635;-54
2021/12/17 09:18:45;;;;;;;0.83;0.80;;;3.60;99.90;;;;;;5013113;28;20581;-55
2021/12/17 09:21:10;;;;;;;3.00;0.97;;;3.50;99.90;;;;;;5013210;28;20203;-61
2021/12/17 09:23:36;;;;;;;2.80;1.37;;;3.50;99.90;;;;;;5012720;28;20188;-57
2021/12/17 09:26:02;;;;;;;0.60;0.60;;;3.40;99.90;;;;;;5013252;28;20663;-55
2021/12/17 09:28:31;;;;;;;0.40;0.40;;;3.30;99.90;;;;;;5013093;28;20211;-56
2021/12/17 09:30:57;;;;;;;0.37;0.37;;;3.40;99.90;;;;;;5029795;28;20187;-58
2021/12/17 09:33:25;;;;;;;0.20;0.20;;;3.40;99.90;;;;;;5032286;28;20191;-56
2021/12/17 09:35:51;;;;;;;0.50;0.50;;;3.30;99.90;;;;;;5015465;28;20685;-53
2021/12/17 09:38:18;;;;;;;0.60;0.60;;;3.30;99.90;;;;;;5032004;28;20318;-57
2021/12/17 09:40:44;;;;;;;6.33;1.13;;;3.30;99.90;;;;;;5029953;28;20221;-60
2021/12/17 09:43:10;;;;;;;0.30;0.30;;;3.30;99.90;;;;;;5012985;28;20573;-54
2021/12/17 09:45:37;;;;;;;0.83;0.83;;;3.30;99.90;;;;;;5013125;28;20183;-59
2021/12/17 09:48:03;;;;;;;0.47;0.47;;;3.30;99.90;;;;;;5012225;28;20211;-64
2021/12/17 09:50:30;;;;;;;0.83;0.70;;;3.40;99.90;;;;;;5012034;28;20541;-60
2021/12/17 09:52:56;;;;;;;3.13;1.30;;;3.40;99.90;;;;;;5012187;28;20283;-54
2021/12/17 09:55:22;;;;;;;2.10;0.77;;;3.40;99.90;;;;;;5011796;28;20591;-60
2021/12/17 09:57:48;;;;;;;0.87;0.63;;;3.30;99.90;;;;;;5012252;28;20183;-55
2021/12/17 10:00:20;;;;;;;1.40;1.30;;;3.30;99.90;;;;;;5011357;28;20183;-58
2021/12/17 10:02:48;;;;;;;0.73;0.63;;;3.30;99.90;;;;;;5012538;28;20180;-60
2021/12/17 10:05:27;;;;;;;0.20;0.20;;;3.20;99.90;;;;;;5011427;28;20681;-60
2021/12/17 10:07:58;;;;;;;1.50;1.40;;;3.20;99.90;;;;;;5012292;28;20187;-55
2021/12/17 10:10:36;;;;;;;0.13;0.13;;;3.20;99.90;;;;;;5011491;28;20183;-59
2021/12/17 10:13:20;;;;;;;0.30;0.30;;;3.20;99.90;;;;;;5011904;28;20229;-58
2021/12/17 10:15:52;;;;;;;1.10;1.00;;;3.20;99.90;;;;;;5011831;28;20163;-59
2021/12/17 10:18:37;;;;;;;0.07;0.07;;;3.30;99.90;;;;;;5012096;28;20210;-55
2021/12/17 10:21:12;;;;;;;3.10;1.07;;;3.30;99.90;;;;;;5012323;28;20176;-57
2021/12/17 10:23:41;;;;;;;3.10;0.73;;;3.30;99.90;;;;;;5011627;28;20610;-56
2021/12/17 10:26:14;;;;;;;1.00;0.77;;;3.40;99.90;;;;;;5011988;28;20199;-55
2021/12/17 10:28:59;;;;;;;0.47;0.47;;;3.40;99.90;;;;;;5010809;28;20658;-56
2021/12/17 10:31:27;;;;;;;0.53;0.53;;;3.30;99.90;;;;;;5011508;28;20195;-58
2021/12/17 10:33:55;;;;;;;3.40;0.50;;;3.30;99.90;;;;;;5011906;28;20184;-60
2021/12/17 10:36:41;;;;;;;1.10;1.00;;;3.40;99.90;;;;;;5011971;28;20193;-58
2021/12/17 10:39:28;;;;;;;0.57;0.57;;;3.50;99.90;;;;;;5012253;28;20163;-53
2021/12/17 10:41:54;;;;;;;1.07;1.03;;;3.60;99.90;;;;;;5011608;28;20607;-59
2021/12/17 10:44:23;;;;;;;0.10;0.10;;;3.50;99.90;;;;;;4994026;28;20271;-57
2021/12/17 10:47:08;;;;;;;0.50;0.50;;;3.40;99.90;;;;;;5011942;28;20185;-58
2021/12/17 10:49:35;;;;;;;0.33;0.33;;;3.50;99.90;;;;;;4993953;28;20654;-57
2021/12/17 10:52:06;;;;;;;1.87;1.47;;;3.50;99.90;;;;;;4993971;28;20171;-54
2021/12/17 10:54:33;;;;;;;0.30;0.30;;;3.50;99.90;;;;;;5010997;28;20245;-58
2021/12/17 10:56:59;;;;;;;0.60;0.60;;;3.40;99.90;;;;;;5011229;28;20579;-55
2021/12/17 10:59:28;;;;;;;0.30;0.30;;;3.40;99.90;;;;;;5011496;28;20187;-56
2021/12/17 11:02:02;;;;;;;0.63;0.50;;;3.40;99.90;;;;;;5011896;28;20219;-60
2021/12/17 11:04:30;;;;;;;0.13;0.13;;;3.30;99.90;;;;;;5011088;28;20612;-58
2021/12/17 11:07:00;;;;;;;0.10;0.10;;;3.20;99.90;;;;;;5011879;28;20250;-55
2021/12/17 11:09:54;;;;;;;0.40;0.40;;;3.30;99.90;;;;;;5010796;28;20648;-54
2021/12/17 11:12:23;;;;;;;0.53;0.50;;;3.20;99.90;;;;;;5008310;28;20535;-56
2021/12/17 11:14:50;;;;;;;7.57;1.00;;;3.20;99.90;;;;;;5030665;28;20313;-56
2021/12/17 11:17:20;;;;;;;0.20;0.20;;;3.10;99.90;;;;;;5030856;28;20623;-56
2021/12/17 11:19:50;;;;;;;0.40;0.40;;;3.00;99.90;;;;;;5030906;28;20277;-54
2021/12/17 11:22:17;;;;;;;0.70;0.70;;;3.10;99.90;;;;;;5011499;28;20167;-58
2021/12/17 11:24:43;;;;;;;2.20;1.63;;;3.20;99.90;;;;;;5029233;28;20604;-61
2021/12/17 11:27:09;;;;;;;0.60;0.53;;;3.20;99.90;;;;;;5030130;28;20182;-54
2021/12/17 11:29:36;;;;;;;0.97;0.53;;;3.20;99.90;;;;;;5029393;28;20345;-59
2021/12/17 11:32:04;;;;;;;14.73;1.63;;;3.20;99.90;;;;;;5011415;28;20208;-59
2021/12/17 11:34:32;;;;;;;0.33;0.33;;;3.20;99.90;;;;;;5029016;28;20213;-56
2021/12/17 11:37:01;;;;;;;0.37;0.37;;;3.10;99.90;;;;;;5030636;28;20175;-55
2021/12/17 11:39:37;;;;;;;1.27;0.60;;;3.00;99.90;;;;;;5032385;28;20261;-55
2021/12/17 11:42:31;;;;;;;0.60;0.60;;;3.00;99.90;;;;;;5035313;28;20266;-56
2021/12/17 11:47:46;;;;;;;1.13;1.07;;;2.90;99.90;;;;;;5035151;28;20629;-54
2021/12/17 11:50:16;;;;;;;1.60;1.10;;;2.90;99.90;;;;;;5035385;28;20182;-68
2021/12/17 11:52:52;;;;;;;1.17;1.10;;;2.90;99.90;;;;;;5035294;28;20187;-55
2021/12/17 11:55:21;;;;;;;0.40;0.40;;;2.80;99.90;;;;;;5034589;28;20166;-55
2021/12/17 11:57:54;;;;;;;3.17;1.60;;;2.80;99.90;;;;;;5035273;28;20182;-56
2021/12/17 12:00:31;;;;;;;0.43;0.40;;;2.70;99.90;;;;;;5034700;28;20611;-55
2021/12/17 12:03:19;;;;;;;2.30;0.50;;;2.70;99.90;;;;;;5035251;28;20216;-55
2021/12/17 12:05:47;;;;;;;0.97;0.97;;;2.70;99.90;;;;;;5034696;28;20162;-53
2021/12/17 12:08:51;;;;;;;1.40;0.67;;;2.60;99.90;;;;;;5034097;28;20292;-60
2021/12/17 12:11:30;;;;;;;0.77;0.77;;;2.60;99.90;;;;;;5033721;28;20198;-59
2021/12/17 12:13:56;;;;;;;0.50;0.50;;;2.60;99.90;;;;;;5034745;28;20223;-55
2021/12/17 12:16:25;;;;;;;1.40;0.60;;;2.60;99.90;;;;;;5016728;28;20262;-58
2021/12/17 12:18:52;;;;;;;1.60;1.33;;;2.60;99.90;;;;;;5034689;28;20202;-55
2021/12/17 12:21:24;;;;;;;1.23;0.50;;;2.60;99.90;;;;;;5034037;28;20224;-54
2021/12/17 12:23:55;;;;;;;1.93;0.93;;;2.70;99.90;;;;;;5034324;28;20515;-56
2021/12/17 12:26:26;;;;;;;1.77;1.47;;;2.70;99.90;;;;;;5033703;28;20239;-56
2021/12/17 12:29:03;;;;;;;0.60;0.60;;;2.70;99.90;;;;;;5016230;28;20598;-53
2021/12/17 12:31:32;;;;;;;2.83;1.83;;;2.70;99.90;;;;;;5014535;28;20207;-54
2021/12/17 12:34:00;;;;;;;0.70;0.70;;;2.60;99.90;;;;;;5014940;28;20199;-56
2021/12/17 12:37:04;;;;;;;0.20;0.20;;;2.50;99.90;;;;;;5014489;28;20182;-53
2021/12/17 12:39:49;;;;;;;0.67;0.67;;;2.50;99.90;;;;;;5013816;28;20167;-54
2021/12/17 12:42:28;;;;;;;3.50;1.50;;;2.50;99.90;;;;;;5014042;28;20488;-62
2021/12/17 12:44:57;;;;;;;0.93;0.93;;;2.50;99.90;;;;;;5014599;28;20615;-55
2021/12/17 12:47:31;;;;;;;5.47;0.63;;;2.50;99.90;;;;;;5014139;28;20250;-53
2021/12/17 12:50:11;;;;;;;0.10;0.10;;;2.50;99.90;;;;;;5014009;28;20206;-53
2021/12/17 12:52:59;;;;;;;0.77;0.60;;;2.40;99.90;;;;;;5013760;28;20163;-56
2021/12/17 12:55:36;;;;;;;0.13;0.13;;;2.40;99.90;;;;;;5013883;28;20649;-53
2021/12/17 12:58:33;;;;;;;0.17;0.17;;;2.30;99.90;;;;;;5013854;28;20255;-56
2021/12/17 13:01:02;;;;;;;3.93;1.00;;;2.30;99.90;;;;;;5010399;28;20187;-55
2021/12/17 13:03:31;;;;;;;0.20;0.20;;;2.40;99.90;;;;;;5013595;28;20187;-55
2021/12/17 13:05:59;;;;;;;0.53;0.53;;;2.40;99.90;;;;;;5014092;28;20190;-55
2021/12/17 13:08:26;;;;;;;1.50;0.43;;;2.40;99.90;;;;;;5013461;28;20214;-55
2021/12/17 13:11:00;;;;;;;19.03;7.80;;;2.40;99.90;;;;;;5013425;28;20242;-52
2021/12/17 13:16:24;;;;;;;18.63;8.60;;;2.40;99.90;;;;;;5013760;28;20202;-57
2021/12/17 13:24:27;;;;;;;25.93;10.70;;;2.30;99.90;;;;;;5013204;28;20212;-54
2021/12/17 13:26:56;;;;;;;16.63;6.47;;;2.30;99.90;;;;;;5013483;28;20159;-54
2021/12/17 13:29:26;;;;;;;19.10;8.20;;;2.30;99.90;;;;;;5016747;28;20202;-53
2021/12/17 13:32:14;;;;;;;18.87;7.87;;;2.20;99.90;;;;;;5032724;28;20175;-56
2021/12/17 13:34:43;;;;;;;31.53;9.07;;;2.20;99.90;;;;;;5033221;28;20170;-53
2021/12/17 13:37:17;;;;;;;22.63;8.97;;;2.30;99.90;;;;;;5033058;28;20198;-55
2021/12/17 13:39:49;;;;;;;23.40;9.37;;;2.30;99.90;;;;;;5032583;28;20571;-53
2021/12/17 13:42:21;;;;;;;24.27;8.60;;;2.30;99.90;;;;;;5033159;28;20210;-57
2021/12/17 13:44:47;;;;;;;16.43;7.17;;;2.20;99.90;;;;;;5032955;28;20178;-54
2021/12/17 13:47:34;;;;;;;16.27;7.93;;;2.20;99.90;;;;;;5033311;28;20229;-56
2021/12/17 13:50:05;;;;;;;20.07;6.53;;;2.10;99.90;;;;;;5033155;28;20221;-56
2021/12/17 13:52:33;;;;;;;20.60;7.90;;;2.00;99.90;;;;;;5032631;28;20193;-55
2021/12/17 13:55:01;;;;;;;20.87;8.60;;;1.90;99.90;;;;;;5032616;28;20289;-53
2021/12/17 13:57:29;;;;;;;20.00;8.77;;;1.90;99.90;;;;;;5032599;28;20583;-56
2021/12/17 14:00:23;;;;;;;20.73;8.30;;;1.80;99.90;;;;;;5032707;28;20603;-54
2021/12/17 14:02:52;;;;;;;19.03;8.37;;;1.80;99.90;;;;;;5030205;28;20191;-53
2021/12/17 14:05:27;;;;;;;20.93;9.53;;;1.80;99.90;;;;;;5032740;28;20220;-53
2021/12/17 14:07:59;;;;;;;24.07;9.97;;;1.80;99.90;;;;;;5032200;28;20181;-52
2021/12/17 14:10:37;;;;;;;22.20;9.37;;;1.70;99.90;;;;;;5032549;28;20185;-50
2021/12/17 14:13:04;;;;;;;25.13;9.20;;;1.80;99.90;;;;;;5031498;28;20701;-53
2021/12/17 14:15:35;;;;;;;17.90;9.07;;;1.80;99.90;;;;;;5032166;28;20610;-53
2021/12/17 14:18:06;;;;;;;23.67;9.13;;;1.80;99.90;;;;;;5032046;28;20194;-53
2021/12/17 14:20:45;;;;;;;18.73;8.87;;;1.80;99.90;;;;;;5031954;28;20182;-56
2021/12/17 14:23:16;;;;;;;21.60;8.20;;;1.70;99.90;;;;;;5032030;28;20190;-54
2021/12/17 14:25:52;;;;;;;18.40;7.90;;;1.60;99.90;;;;;;5032369;28;20178;-55
2021/12/17 14:28:25;;;;;;;17.47;7.33;;;1.50;99.90;;;;;;5032388;28;20209;-51
2021/12/17 14:30:58;;;;;;;20.60;8.57;;;1.40;99.90;;;;;;5032054;28;20236;-54
2021/12/17 14:33:33;;;;;;;20.77;7.70;;;1.40;99.90;;;;;;5014065;28;20178;-51
2021/12/17 14:36:02;;;;;;;17.80;8.10;;;1.40;99.90;;;;;;5031932;28;20231;-53
2021/12/17 14:38:39;;;;;;;17.73;7.67;;;1.40;99.90;;;;;;5031567;28;20184;-50
2021/12/17 14:41:07;;;;;;;22.20;8.17;;;1.40;99.90;;;;;;5032040;28;20223;-52
2021/12/17 14:43:55;;;;;;;29.60;9.93;;;1.40;99.90;;;;;;5010798;28;20182;-55
2021/12/17 14:46:28;;;;;;;20.83;7.40;;;1.40;99.90;;;;;;5030208;28;20231;-69
2021/12/17 15:04:49;;;;;;;28.30;10.40;;;1.30;99.90;;;;;;5028121;28;20272;-55
2021/12/17 15:07:15;;;;;;;26.97;9.40;;;1.40;99.90;;;;;;5028855;28;20184;-54
2021/12/17 15:09:46;;;;;;;26.97;9.23;;;1.40;99.90;;;;;;5028358;28;20255;-58
2021/12/17 15:14:58;;;;;;;20.93;9.23;;;1.40;99.90;;;;;;5028645;28;20689;-54
2021/12/17 15:17:24;;;;;;;27.63;9.73;;;1.40;99.90;;;;;;5028677;28;20188;-61
2021/12/17 15:19:50;;;;;;;22.37;9.03;;;1.40;99.90;;;;;;5028536;28;20186;-59
2021/12/17 15:22:16;;;;;;;27.17;9.17;;;1.40;99.90;;;;;;5028315;28;20175;-54
2021/12/17 15:24:42;;;;;;;26.57;9.80;;;1.40;99.90;;;;;;5028675;28;20334;-58
2021/12/17 15:27:07;;;;;;;19.23;9.67;;;1.40;99.90;;;;;;5029428;28;20488;-54
2021/12/17 15:29:33;;;;;;;21.23;10.10;;;1.40;99.90;;;;;;5010543;28;20555;-57
2021/12/17 15:31:59;;;;;;;26.63;10.20;;;1.40;99.90;;;;;;5028759;28;20170;-59
2021/12/17 15:34:26;;;;;;;23.67;10.13;;;1.40;99.90;;;;;;5028734;28;20183;-53
2021/12/17 15:36:53;;;;;;;27.27;9.80;;;1.50;99.90;;;;;;5010912;28;20197;-56
2021/12/17 15:39:18;;;;;;;15.17;6.47;;;1.40;99.90;;;;;;5028144;28;20179;-56
2021/12/17 15:41:44;;;;;;;15.63;7.43;;;1.40;99.90;;;;;;5018826;28;20247;-56
2021/12/17 15:44:11;;;;;;;28.57;9.33;;;1.30;99.90;;;;;;5020512;28;20194;-57
2021/12/17 15:46:38;;;;;;;27.90;9.70;;;1.20;99.90;;;;;;5019834;28;20199;-58
2021/12/17 15:49:05;;;;;;;1.63;1.00;;;1.10;99.90;;;;;;5028263;28;20254;-54
2021/12/17 15:51:31;;;;;;;0.50;0.50;;;1.00;99.90;;;;;;5022546;28;20224;-53
2021/12/17 15:53:57;;;;;;;0.77;0.77;;;1.00;99.90;;;;;;5028073;28;20236;-55
2021/12/17 15:56:23;;;;;;;1.60;1.50;;;1.00;99.90;;;;;;5007619;28;20207;-59
2021/12/17 15:58:49;;;;;;;0.20;0.20;;;1.00;99.90;;;;;;5029078;28;20265;-51
2021/12/17 16:01:15;;;;;;;1.17;1.10;;;1.00;99.90;;;;;;5011088;28;20196;-55
2021/12/17 16:03:42;;;;;;;0.87;0.87;;;1.00;99.90;;;;;;5027990;28;20618;-60
2021/12/17 16:06:09;;;;;;;1.50;1.40;;;1.00;99.90;;;;;;5028460;28;20614;-57
2021/12/17 16:08:42;;;;;;;0.10;0.10;;;1.00;99.90;;;;;;5028329;28;20514;-56
2021/12/17 16:21:40;;;;;;;1.17;0.63;;;1.10;99.90;;;;;;5028601;28;20250;-54
2021/12/17 16:24:06;;;;;;;1.23;1.20;;;1.10;99.90;;;;;;5029119;28;20197;-51
2021/12/17 16:26:32;;;;;;;0.53;0.53;;;1.10;99.90;;;;;;5030527;28;20565;-58
2021/12/17 16:28:58;;;;;;;0.50;0.50;;;1.20;99.90;;;;;;5013959;28;20221;-51
2021/12/17 16:31:26;;;;;;;1.03;0.93;;;1.20;99.90;;;;;;5031961;28;20206;-62
2021/12/17 16:34:03;;;;;;;0.87;0.87;;;1.20;99.90;;;;;;5032573;28;20173;-56
2021/12/17 16:36:31;;;;;;;5.30;0.97;;;1.20;99.90;;;;;;5031794;28;20184;-55
2021/12/17 16:38:57;;;;;;;1.00;1.00;;;1.20;99.90;;;;;;5012575;28;20224;-57
2021/12/17 16:41:24;;;;;;;3.00;1.60;;;1.20;99.90;;;;;;5012392;28;20214;-56
2021/12/17 16:43:58;;;;;;;0.43;0.40;;;1.20;99.90;;;;;;5012402;28;20176;-55
2021/12/17 16:47:01;;;;;;;1.67;1.43;;;1.20;99.90;;;;;;5012313;28;20231;-57
2021/12/17 16:49:13;;;;;;;0.77;0.67;;;1.20;99.90;;;;;;5011651;28;20677;-55
2021/12/17 16:51:40;;;;;;;0.60;0.60;;;1.20;99.90;;;;;;5011923;28;20192;-53
2021/12/17 16:54:06;;;;;;;0.30;0.30;;;1.20;99.90;;;;;;5011832;28;20180;-55
2021/12/17 16:56:32;;;;;;;0.33;0.33;;;1.20;99.90;;;;;;5011993;28;20725;-59
2021/12/17 16:58:58;;;;;;;1.70;0.77;;;1.20;99.90;;;;;;5012438;28;20258;-54